KNPA/NPA METAR and TAF weather

Enter ICAO airport designator
Station Type Date Time Source
KNPA METAR 2019/06/18 04:56 UTC NOAA

KNPA 180456Z AUTO 18009KT 10SM CLR 28/24 A2999 RMK AO2 SLP155 T02780244 $


Station Type Date Time Source
KNPA Decoded METAR 2019/06/18 04:56 UTC NOAA

Pensacola, Naval Air Station, FL, United States (KNPA) 30-21-22N 087-19-24W 10M
Jun 18, 2019 - 12:56 AM EDT / 2019.06.18 0456 UTC
Wind: from the S (180 degrees) at 10 MPH (9 KT):0
Visibility: 10 mile(s):0
Sky conditions: clear
Temperature: 82.0 F (27.8 C)
Dew Point: 75.9 F (24.4 C)
Relative Humidity: 81%
Pressure (altimeter): 29.99 in. Hg (1015 hPa)
ob: KNPA 180456Z AUTO 18009KT 10SM CLR 28/24 A2999 RMK AO2 SLP155 T02780244
cycle: 5

Station Type Date Time Source
KNPA TAF 2019/06/17 23:57 UTC NOAA

TAF KNPA 1723/1823 19008KT 9999 SCT025 BKN250 QNH2991INS
FM180900 VRB05KT 9999 VCSH SCT020 SCT150 BKN250 QNH2992INS
FM181500 15012KT 9999 VCTS SCT020CB BKN100 BKN250 QNH2990INS
TEMPO 1815/1821 VRB15G25KT 3200 TSRA BKN015CB
FM182100 20012KT 9999 VCTS SCT025CB BKN100 BKN250 QNH2990INS AUTOMATED SENSOR METWATCH 1803 TIL 1811 T25/1811Z T20/1411Z FN20033

Example: see airport list